createdAt,value
2018-12-31T17:01:27.297Z,85.5
2018-12-31T17:06:25.319Z,85.5
2018-12-31T17:11:23.281Z,85.5
2018-12-31T17:16:21.521Z,85.5
2018-12-31T17:21:20.291Z,85.5
2018-12-31T17:26:19.371Z,85.5
2018-12-31T17:31:17.309Z,85.5
2018-12-31T17:36:16.527Z,85.5
2018-12-31T17:41:15.617Z,85.5
2018-12-31T17:46:14.498Z,85.0
2018-12-31T17:51:12.258Z,85.5
2018-12-31T17:56:11.288Z,85.0
2018-12-31T18:01:09.461Z,85.0
2018-12-31T18:06:08.262Z,85.0
2018-12-31T18:11:06.525Z,85.0
2018-12-31T18:16:05.473Z,85.0
2018-12-31T18:21:04.319Z,85.0
2018-12-31T18:26:03.279Z,85.0
2018-12-31T18:31:01.346Z,85.0
2018-12-31T18:36:00.477Z,85.0
2018-12-31T18:40:58.454Z,85.0
2018-12-31T18:45:57.318Z,85.0
2018-12-31T18:50:56.572Z,85.0
2018-12-31T18:55:55.279Z,85.0
2018-12-31T19:00:55.468Z,83.5
2018-12-31T19:05:53.511Z,83.0
2018-12-31T19:10:51.508Z,82.0
2018-12-31T19:15:49.286Z,82.0
2018-12-31T19:20:49.500Z,82.5
2018-12-31T19:25:48.355Z,82.5
2018-12-31T19:30:46.464Z,82.5
2018-12-31T19:35:45.318Z,81.5
2018-12-31T19:40:43.304Z,81.5
2018-12-31T19:45:41.394Z,80.5
2018-12-31T19:50:39.291Z,80.0
2018-12-31T19:55:38.292Z,79.5
2018-12-31T20:00:38.595Z,80.5
2018-12-31T20:05:35.285Z,81.0
2018-12-31T20:10:34.667Z,81.5
2018-12-31T20:15:31.686Z,81.0
2018-12-31T20:20:30.582Z,81.5
2018-12-31T20:25:29.552Z,81.0
2018-12-31T20:30:28.257Z,81.5
2018-12-31T20:35:28.608Z,82.0
2018-12-31T20:40:26.365Z,81.5
2018-12-31T20:45:24.510Z,82.0
2018-12-31T20:50:23.322Z,82.0
2018-12-31T20:55:21.283Z,81.5
2018-12-31T21:00:20.326Z,81.0
2018-12-31T21:05:18.541Z,80.5
2018-12-31T21:10:17.284Z,80.5
2018-12-31T21:15:16.637Z,81.0
2018-12-31T21:20:14.541Z,80.5
2018-12-31T21:25:13.325Z,80.5
2018-12-31T21:30:12.328Z,81.0
2018-12-31T21:35:11.528Z,80.5
2018-12-31T21:40:09.422Z,81.0
2018-12-31T21:45:09.275Z,80.5
2018-12-31T21:50:09.531Z,80.5
2018-12-31T21:55:08.292Z,80.5
2018-12-31T22:00:06.307Z,80.5
2018-12-31T22:05:05.286Z,81.0
2018-12-31T22:10:03.603Z,81.0
2018-12-31T22:15:02.270Z,82.0
2018-12-31T22:20:02.661Z,83.0
2018-12-31T22:25:00.315Z,84.0
2018-12-31T22:29:59.307Z,84.5
2018-12-31T22:34:57.282Z,84.5
2018-12-31T22:39:56.499Z,85.0
2018-12-31T22:44:54.307Z,85.0
2018-12-31T22:49:52.319Z,85.0
2018-12-31T22:54:50.291Z,84.5
2018-12-31T22:59:48.505Z,84.5
2018-12-31T23:04:46.435Z,84.5
2018-12-31T23:09:44.550Z,84.5
2018-12-31T23:14:44.332Z,84.5
2018-12-31T23:19:42.305Z,85.0
2018-12-31T23:24:41.297Z,85.5
2018-12-31T23:29:39.345Z,86.0
2018-12-31T23:34:38.502Z,86.0
2018-12-31T23:39:37.332Z,86.5
2018-12-31T23:44:35.299Z,86.5
2018-12-31T23:49:34.313Z,86.0
2018-12-31T23:54:32.287Z,85.5
2018-12-31T23:59:31.571Z,85.0
